createdAt,value
2018-06-20T00:00:10.774Z,20.63
2018-06-20T00:02:45.095Z,24.83
2018-06-20T00:05:19.405Z,23.93
2018-06-20T00:07:53.751Z,26.07
2018-06-20T00:10:27.996Z,23.17
2018-06-20T00:13:02.419Z,24.10
2018-06-20T00:15:36.690Z,23.07
2018-06-20T00:18:11.027Z,20.47
2018-06-20T00:20:45.456Z,22.37
2018-06-20T00:23:19.782Z,26.93
2018-06-20T00:25:54.206Z,24.13
2018-06-20T00:28:28.427Z,24.63
2018-06-20T00:31:02.627Z,22.47
2018-06-20T00:33:36.963Z,20.13
2018-06-20T00:36:11.289Z,22.33
2018-06-20T00:38:45.614Z,20.57
2018-06-20T00:41:19.905Z,22.40
2018-06-20T00:43:54.162Z,21.77
2018-06-20T00:46:28.466Z,23.37
2018-06-20T00:49:02.698Z,21.77
2018-06-20T00:51:36.890Z,22.70
2018-06-20T00:54:11.112Z,26.67
2018-06-20T00:56:45.283Z,24.77
2018-06-20T00:59:19.671Z,21.30
2018-06-20T01:01:54.015Z,25.77
2018-06-20T01:04:28.362Z,24.93
2018-06-20T01:07:02.636Z,25.03
2018-06-20T01:09:37.077Z,25.00
2018-06-20T01:12:11.417Z,26.43
2018-06-20T01:14:45.598Z,24.80
2018-06-20T01:17:19.804Z,23.80
2018-06-20T01:19:54.070Z,25.43
2018-06-20T01:22:28.355Z,25.10
2018-06-20T01:25:02.801Z,28.30
2018-06-20T01:27:37.088Z,27.13
2018-06-20T01:30:11.306Z,25.90
2018-06-20T01:32:45.487Z,26.90
2018-06-20T01:35:19.690Z,24.73
2018-06-20T01:37:53.970Z,24.73
2018-06-20T01:40:28.271Z,26.20
2018-06-20T01:43:02.680Z,21.83
2018-06-20T01:45:37.314Z,28.57
2018-06-20T01:48:11.486Z,28.30
2018-06-20T01:50:45.721Z,31.73
2018-06-20T01:53:19.970Z,26.97
2018-06-20T01:55:54.305Z,23.73
2018-06-20T01:58:28.627Z,26.10
2018-06-20T02:01:02.870Z,30.00
2018-06-20T02:03:37.158Z,28.73
2018-06-20T02:06:11.364Z,26.80
2018-06-20T02:08:45.689Z,26.57
2018-06-20T02:11:20.043Z,22.03
2018-06-20T02:13:54.509Z,25.90
2018-06-20T02:16:28.827Z,25.73
2018-06-20T02:19:03.024Z,24.83
2018-06-20T02:21:37.226Z,26.93
2018-06-20T02:24:11.458Z,27.87
2018-06-20T02:26:45.694Z,26.80
2018-06-20T02:29:20.040Z,26.93
2018-06-20T02:31:54.292Z,25.43
2018-06-20T02:34:28.600Z,28.40
2018-06-20T02:37:02.725Z,32.00
2018-06-20T02:39:36.959Z,24.37
2018-06-20T02:42:11.224Z,26.87
2018-06-20T02:44:45.547Z,28.23
2018-06-20T02:47:24.100Z,25.07
2018-06-20T02:49:58.551Z,27.67
2018-06-20T02:52:32.755Z,25.83
2018-06-20T02:55:07.123Z,28.93
2018-06-20T02:57:41.355Z,29.63
2018-06-20T03:00:15.676Z,27.50
2018-06-20T03:02:50.050Z,28.40
2018-06-20T03:05:24.270Z,26.83
2018-06-20T03:07:58.537Z,29.20
2018-06-20T03:10:32.731Z,26.17
2018-06-20T03:13:06.995Z,26.63
2018-06-20T03:15:41.237Z,28.43
2018-06-20T03:18:15.503Z,30.00
2018-06-20T03:20:49.746Z,28.53
2018-06-20T03:23:24.047Z,26.27
2018-06-20T03:25:58.318Z,28.17
2018-06-20T03:28:32.675Z,27.60
2018-06-20T03:31:07.101Z,24.90
2018-06-20T03:33:41.434Z,28.80
2018-06-20T03:36:15.838Z,27.10
2018-06-20T03:38:50.203Z,28.60
2018-06-20T03:41:24.499Z,28.90
2018-06-20T03:43:58.790Z,27.43
2018-06-20T03:46:33.429Z,27.70
2018-06-20T03:49:07.711Z,28.60
2018-06-20T03:51:42.127Z,28.73
2018-06-20T03:54:16.507Z,30.07
2018-06-20T03:56:50.743Z,30.23
2018-06-20T03:59:25.018Z,30.83
2018-06-20T04:01:59.543Z,30.13
2018-06-20T04:04:33.755Z,31.17
2018-06-20T04:07:08.056Z,28.93
2018-06-20T04:09:42.340Z,29.17
2018-06-20T04:12:16.718Z,35.70
2018-06-20T04:14:51.071Z,27.03
2018-06-20T04:17:25.374Z,33.00
2018-06-20T04:19:59.529Z,30.47
2018-06-20T04:22:33.876Z,31.37
2018-06-20T04:25:08.075Z,33.33
2018-06-20T04:27:42.407Z,28.77
2018-06-20T04:30:16.650Z,32.00
2018-06-20T04:32:50.984Z,32.90
2018-06-20T04:35:25.403Z,34.20
2018-06-20T04:37:59.791Z,28.23
2018-06-20T04:40:34.202Z,28.73
2018-06-20T04:43:08.454Z,26.80
2018-06-20T04:45:42.665Z,33.90
2018-06-20T04:48:17.134Z,28.30
2018-06-20T04:50:51.334Z,26.47
2018-06-20T04:53:25.623Z,31.40
2018-06-20T04:56:00.053Z,29.73
2018-06-20T04:58:34.299Z,32.63
2018-06-20T05:01:08.736Z,31.13
2018-06-20T05:03:42.922Z,29.60
2018-06-20T05:06:17.335Z,32.17
2018-06-20T05:08:51.563Z,31.40
2018-06-20T05:11:26.002Z,31.97
2018-06-20T05:14:00.262Z,31.20
2018-06-20T05:16:34.600Z,28.17
2018-06-20T05:19:08.714Z,31.60
2018-06-20T05:21:43.239Z,30.43
2018-06-20T05:24:17.508Z,30.93
2018-06-20T05:26:51.696Z,37.27
2018-06-20T05:29:25.995Z,29.13
2018-06-20T05:32:00.390Z,29.10
2018-06-20T05:34:34.641Z,32.53
2018-06-20T05:37:08.778Z,31.17
2018-06-20T05:39:43.042Z,29.07
2018-06-20T05:42:17.487Z,29.07
2018-06-20T05:44:51.714Z,26.77
2018-06-20T05:47:25.903Z,27.67
2018-06-20T05:50:00.151Z,31.17
2018-06-20T05:52:34.618Z,32.33
2018-06-20T05:55:08.877Z,30.30
2018-06-20T05:57:43.309Z,30.50
2018-06-20T06:00:17.487Z,31.20
2018-06-20T06:02:51.830Z,30.07
2018-06-20T06:05:26.131Z,29.50
2018-06-20T06:08:07.303Z,28.87
2018-06-20T06:10:41.710Z,26.97
2018-06-20T06:13:16.128Z,29.50
2018-06-20T06:15:50.362Z,32.10
2018-06-20T06:18:24.717Z,29.90
2018-06-20T06:20:59.131Z,28.90
2018-06-20T06:23:33.455Z,30.13
2018-06-20T06:26:07.719Z,27.53
2018-06-20T06:28:42.036Z,28.50
2018-06-20T06:31:16.387Z,28.10
2018-06-20T06:33:50.739Z,26.50
2018-06-20T06:36:25.022Z,30.40
2018-06-20T06:38:59.535Z,25.73
2018-06-20T06:41:33.822Z,27.27
2018-06-20T06:44:08.042Z,28.53
2018-06-20T06:46:42.309Z,29.27
2018-06-20T06:49:16.618Z,26.17
2018-06-20T06:51:50.890Z,27.57
2018-06-20T06:54:25.345Z,27.90
2018-06-20T06:56:59.739Z,28.37
2018-06-20T06:59:34.101Z,34.73
2018-06-20T07:02:08.271Z,31.17
2018-06-20T07:04:42.487Z,32.20
2018-06-20T07:07:16.791Z,28.53
2018-06-20T07:09:51.081Z,31.33
2018-06-20T07:12:25.502Z,34.27
2018-06-20T07:14:59.857Z,30.57
2018-06-20T07:17:34.311Z,30.13
2018-06-20T07:20:08.731Z,33.17
2018-06-20T07:22:43.078Z,34.00
2018-06-20T07:25:17.251Z,34.73
2018-06-20T07:27:51.482Z,35.73
2018-06-20T07:30:25.761Z,33.90
2018-06-20T07:32:59.750Z,33.47
2018-06-20T07:35:34.081Z,34.20
2018-06-20T07:38:08.187Z,36.13
2018-06-20T07:40:42.546Z,35.93
2018-06-20T07:43:16.707Z,37.83
2018-06-20T07:45:51.117Z,40.73
2018-06-20T07:48:25.322Z,39.57
2018-06-20T07:50:59.618Z,39.03
2018-06-20T07:53:34.071Z,34.47
2018-06-20T07:56:08.382Z,37.07
2018-06-20T07:58:48.194Z,36.07
2018-06-20T08:01:39.354Z,35.53
2018-06-20T08:04:18.911Z,34.73
2018-06-20T08:06:58.433Z,37.00
2018-06-20T08:09:38.156Z,34.43
2018-06-20T08:12:17.787Z,36.00
2018-06-20T08:14:57.394Z,33.90
2018-06-20T08:17:36.950Z,33.97
2018-06-20T08:20:16.734Z,32.33
2018-06-20T08:22:51.197Z,34.63
2018-06-20T08:25:25.483Z,29.10
2018-06-20T08:27:59.796Z,26.90
2018-06-20T08:30:34.103Z,31.43
2018-06-20T08:33:08.469Z,30.87
2018-06-20T08:35:42.778Z,30.00
2018-06-20T08:38:17.049Z,24.13
2018-06-20T08:40:51.451Z,26.00
2018-06-20T08:43:25.898Z,19.47
2018-06-20T08:46:00.246Z,16.90
2018-06-20T08:48:34.406Z,14.53
2018-06-20T08:51:08.602Z,15.13
2018-06-20T08:53:42.938Z,13.80
2018-06-20T08:56:17.361Z,14.90
2018-06-20T08:58:51.606Z,13.87
2018-06-20T09:01:25.845Z,15.27
2018-06-20T09:04:05.567Z,14.23
2018-06-20T09:06:45.394Z,14.70
2018-06-20T09:10:25.351Z,11.53
2018-06-20T09:13:05.116Z,16.20
2018-06-20T09:15:44.789Z,14.60
2018-06-20T09:18:24.710Z,15.27
2018-06-20T09:20:58.865Z,14.07
2018-06-20T09:23:33.055Z,11.30
2018-06-20T09:26:07.362Z,13.30
2018-06-20T09:28:41.519Z,13.00
2018-06-20T09:31:15.865Z,13.73
2018-06-20T09:33:50.060Z,13.00
2018-06-20T09:36:24.321Z,10.70
2018-06-20T09:38:58.850Z,10.33
2018-06-20T09:41:33.099Z,12.77
2018-06-20T09:44:07.382Z,10.30
2018-06-20T09:46:41.726Z,10.00
2018-06-20T09:49:16.093Z,10.07
2018-06-20T09:51:50.459Z,9.30
2018-06-20T09:54:25.170Z,10.77
2018-06-20T09:56:59.300Z,9.97
2018-06-20T09:59:38.959Z,8.73
2018-06-20T10:02:18.490Z,9.13
2018-06-20T10:04:58.239Z,8.63
2018-06-20T10:07:37.772Z,9.07
2018-06-20T10:10:17.290Z,6.37
2018-06-20T10:12:56.851Z,7.20
2018-06-20T10:15:31.002Z,7.57
2018-06-20T10:18:05.213Z,8.83
2018-06-20T10:20:39.258Z,9.10
2018-06-20T10:23:13.438Z,7.87
2018-06-20T10:25:47.702Z,6.97
2018-06-20T10:28:21.874Z,8.30
2018-06-20T10:30:56.054Z,9.93
2018-06-20T10:33:30.183Z,7.83
2018-06-20T10:36:04.646Z,10.30
2018-06-20T10:38:38.970Z,8.07
2018-06-20T10:41:13.270Z,9.27
2018-06-20T10:43:47.754Z,10.63
2018-06-20T10:46:27.543Z,8.00
2018-06-20T10:49:01.972Z,7.67
2018-06-20T10:51:36.314Z,9.20
2018-06-20T10:54:10.719Z,8.13
2018-06-20T10:56:50.399Z,8.43
2018-06-20T10:59:30.001Z,6.53
2018-06-20T11:04:15.642Z,7.17
2018-06-20T11:06:55.380Z,7.33
2018-06-20T11:09:34.936Z,8.70
2018-06-20T11:12:14.778Z,7.43
2018-06-20T11:14:48.923Z,9.27
2018-06-20T11:17:23.098Z,7.10
2018-06-20T11:20:01.511Z,6.87
2018-06-20T11:22:35.714Z,7.70
2018-06-20T11:25:09.886Z,7.77
2018-06-20T11:27:44.103Z,9.40
2018-06-20T11:30:18.552Z,8.27
2018-06-20T11:32:52.863Z,8.53
2018-06-20T11:35:27.058Z,8.07
2018-06-20T11:38:01.362Z,7.33
2018-06-20T11:40:35.574Z,8.23
2018-06-20T11:43:09.828Z,8.10
2018-06-20T11:45:49.570Z,11.67
2018-06-20T11:48:23.886Z,7.00
2018-06-20T11:50:58.214Z,8.37
2018-06-20T11:53:32.611Z,6.83
2018-06-20T11:56:06.762Z,8.30
2018-06-20T11:58:46.494Z,9.17
2018-06-20T12:01:26.272Z,10.73
2018-06-20T12:04:05.956Z,7.83
2018-06-20T12:06:45.678Z,7.20
2018-06-20T12:09:25.366Z,7.40
2018-06-20T12:12:04.967Z,9.07
2018-06-20T12:14:44.448Z,7.03
2018-06-20T12:17:24.022Z,9.00
2018-06-20T12:20:03.478Z,11.63
2018-06-20T12:22:43.072Z,11.13
2018-06-20T12:25:22.658Z,13.43
2018-06-20T12:28:02.491Z,9.77
2018-06-20T12:30:42.074Z,10.37
2018-06-20T12:33:21.602Z,10.77
2018-06-20T12:36:01.108Z,11.90
2018-06-20T12:38:40.742Z,10.27
2018-06-20T12:41:20.338Z,11.43
2018-06-20T12:43:59.998Z,12.90
2018-06-20T12:46:39.495Z,10.93
2018-06-20T12:49:17.545Z,12.57
2018-06-20T12:51:51.743Z,9.57
2018-06-20T12:54:26.272Z,10.10
2018-06-20T12:57:00.406Z,10.53
2018-06-20T12:59:34.724Z,11.77
2018-06-20T13:02:08.902Z,9.40
2018-06-20T13:04:43.220Z,12.43
2018-06-20T13:07:17.758Z,10.30
2018-06-20T13:09:53.704Z,11.17
2018-06-20T13:12:27.915Z,11.60
2018-06-20T13:15:02.237Z,10.47
2018-06-20T13:17:36.564Z,15.17
2018-06-20T13:20:10.863Z,11.03
2018-06-20T13:22:45.104Z,11.40
2018-06-20T13:25:19.393Z,10.73
2018-06-20T13:27:53.795Z,10.93
2018-06-20T13:30:28.150Z,10.43
2018-06-20T13:33:07.765Z,9.90
2018-06-20T13:35:47.277Z,9.93
2018-06-20T13:38:26.802Z,12.87
2018-06-20T13:41:06.648Z,11.37
2018-06-20T13:43:46.211Z,13.73
2018-06-20T13:46:25.952Z,11.30
2018-06-20T13:49:00.292Z,13.40
2018-06-20T13:51:34.530Z,10.87
2018-06-20T13:54:08.971Z,11.60
2018-06-20T13:56:43.263Z,12.00
2018-06-20T13:59:17.522Z,11.53
2018-06-20T14:01:52.136Z,11.33
2018-06-20T14:04:26.422Z,13.00
2018-06-20T14:07:00.630Z,12.60
2018-06-20T14:09:35.027Z,15.67
2018-06-20T14:12:09.407Z,10.53
2018-06-20T14:14:43.662Z,13.37
2018-06-20T14:17:17.930Z,9.93
2018-06-20T14:19:57.495Z,13.13
2018-06-20T14:22:31.626Z,10.47
2018-06-20T14:25:06.042Z,10.63
2018-06-20T14:27:40.452Z,10.77
2018-06-20T14:30:20.247Z,10.10
2018-06-20T14:32:59.953Z,8.97
2018-06-20T14:35:39.560Z,9.80
2018-06-20T14:38:18.883Z,10.30
2018-06-20T14:40:58.658Z,11.20
2018-06-20T14:43:38.439Z,12.63
2018-06-20T14:46:17.209Z,11.83
2018-06-20T14:48:51.367Z,9.47
2018-06-20T14:51:25.803Z,9.03
2018-06-20T14:54:00.048Z,9.27
2018-06-20T14:56:34.351Z,8.60
2018-06-20T14:59:08.626Z,8.53
2018-06-20T15:01:42.883Z,8.50
2018-06-20T15:04:17.182Z,8.17
2018-06-20T15:06:51.663Z,6.87
2018-06-20T15:09:25.850Z,7.33
2018-06-20T15:12:00.343Z,18.97
2018-06-20T15:14:34.618Z,10.17
2018-06-20T15:17:14.591Z,8.00
2018-06-20T15:19:48.720Z,6.80
2018-06-20T15:22:23.195Z,9.07
2018-06-20T15:24:57.503Z,6.43
2018-06-20T15:27:37.312Z,5.10
2018-06-20T15:30:16.906Z,6.60
2018-06-20T15:32:56.494Z,8.47
2018-06-20T15:36:38.294Z,6.40
2018-06-20T15:39:12.679Z,7.07
2018-06-20T15:41:46.985Z,5.20
2018-06-20T15:44:21.174Z,6.60
2018-06-20T15:46:55.518Z,5.77
2018-06-20T15:49:29.795Z,8.93
2018-06-20T15:52:04.178Z,6.50
2018-06-20T15:54:38.483Z,5.97
2018-06-20T15:57:12.982Z,6.83
2018-06-20T15:59:47.162Z,5.43
2018-06-20T16:02:21.448Z,5.20
2018-06-20T16:04:55.725Z,5.67
2018-06-20T16:07:29.926Z,4.93
2018-06-20T16:10:06.292Z,5.90
2018-06-20T16:12:40.627Z,5.10
2018-06-20T16:15:15.637Z,6.20
2018-06-20T16:17:50.005Z,5.40
2018-06-20T16:20:29.785Z,5.90
2018-06-20T16:23:09.390Z,4.73
2018-06-20T16:25:48.883Z,5.40
2018-06-20T16:30:33.335Z,5.63
2018-06-20T16:33:07.579Z,4.50
2018-06-20T16:35:41.810Z,4.13
2018-06-20T16:38:16.178Z,7.67
2018-06-20T16:40:50.329Z,4.70
2018-06-20T16:43:24.638Z,4.37
2018-06-20T16:45:58.783Z,4.63
2018-06-20T16:48:33.150Z,4.60
2018-06-20T16:51:07.410Z,4.30
2018-06-20T16:53:41.878Z,4.10
2018-06-20T16:56:16.310Z,4.13
2018-06-20T16:58:50.599Z,4.30
2018-06-20T17:01:30.278Z,7.20
2018-06-20T17:04:04.415Z,5.67
2018-06-20T17:06:38.701Z,4.07
2018-06-20T17:09:12.818Z,4.87
2018-06-20T17:11:51.458Z,4.07
2018-06-20T17:14:31.007Z,4.63
2018-06-20T17:17:10.523Z,3.07
2018-06-20T17:19:50.224Z,3.63
2018-06-20T17:22:29.706Z,5.10
2018-06-20T17:25:09.247Z,6.97
2018-06-20T17:27:43.570Z,3.10
2018-06-20T17:30:17.966Z,4.63
2018-06-20T17:32:52.391Z,3.67
2018-06-20T17:35:26.786Z,2.50
2018-06-20T17:38:01.131Z,3.27
2018-06-20T17:40:35.345Z,4.00
2018-06-20T17:43:09.550Z,2.67
2018-06-20T17:45:43.692Z,2.20
2018-06-20T17:48:17.874Z,2.60
2018-06-20T17:50:52.000Z,3.23
2018-06-20T17:53:26.371Z,4.40
2018-06-20T17:56:02.412Z,3.23
2018-06-20T17:58:36.866Z,5.93
2018-06-20T18:01:12.274Z,3.67
2018-06-20T18:03:46.646Z,2.73
2018-06-20T18:06:26.334Z,3.43
2018-06-20T18:09:05.950Z,3.23
2018-06-20T18:11:45.642Z,2.63
2018-06-20T18:14:25.214Z,2.97
2018-06-20T18:17:00.145Z,3.33
2018-06-20T18:19:34.310Z,2.63
2018-06-20T18:22:08.626Z,5.43
2018-06-20T18:24:42.903Z,3.03
2018-06-20T18:27:17.254Z,2.87
2018-06-20T18:29:51.594Z,4.27
2018-06-20T18:32:25.819Z,4.07
2018-06-20T18:35:00.125Z,3.53
2018-06-20T18:37:34.439Z,5.70
2018-06-20T18:40:10.087Z,2.93
2018-06-20T18:42:44.548Z,2.93
2018-06-20T18:45:18.808Z,2.50
2018-06-20T18:47:58.607Z,6.43
2018-06-20T18:50:32.806Z,5.53
2018-06-20T18:53:07.196Z,4.20
2018-06-20T18:55:41.594Z,3.10
2018-06-20T18:58:21.510Z,3.97
2018-06-20T19:01:01.250Z,3.70
2018-06-20T19:03:40.879Z,2.83
2018-06-20T19:06:20.461Z,5.13
2018-06-20T19:08:57.503Z,2.97
2018-06-20T19:11:31.779Z,3.30
2018-06-20T19:14:06.179Z,3.67
2018-06-20T19:16:40.539Z,5.03
2018-06-20T19:19:14.832Z,2.93
2018-06-20T19:21:48.984Z,2.93
2018-06-20T19:24:23.202Z,4.77
2018-06-20T19:26:57.760Z,3.00
2018-06-20T19:29:32.079Z,3.73
2018-06-20T19:32:06.458Z,5.57
2018-06-20T19:34:40.758Z,3.87
2018-06-20T19:37:14.983Z,3.47
2018-06-20T19:39:53.166Z,3.53
2018-06-20T19:42:27.443Z,4.13
2018-06-20T19:45:01.658Z,3.17
2018-06-20T19:47:36.098Z,6.27
2018-06-20T19:50:10.350Z,3.10
2018-06-20T19:52:44.659Z,4.13
2018-06-20T19:55:18.827Z,2.77
2018-06-20T19:57:53.166Z,4.87
2018-06-20T20:00:27.544Z,3.50
2018-06-20T20:03:01.847Z,5.13
2018-06-20T20:05:36.247Z,3.70
2018-06-20T20:08:10.622Z,5.10
2018-06-20T20:10:44.928Z,3.47
2018-06-20T20:13:19.278Z,3.40
2018-06-20T20:15:53.583Z,3.47
2018-06-20T20:18:28.032Z,6.67
2018-06-20T20:21:02.266Z,5.03
2018-06-20T20:23:36.602Z,4.30
2018-06-20T20:26:10.891Z,4.47
2018-06-20T20:28:45.171Z,3.90
2018-06-20T20:31:19.835Z,5.30
2018-06-20T20:33:54.261Z,3.70
2018-06-20T20:36:28.468Z,4.00
2018-06-20T20:39:02.957Z,4.50
2018-06-20T20:41:37.231Z,3.93
2018-06-20T20:44:11.574Z,4.30
2018-06-20T20:46:45.930Z,5.03
2018-06-20T20:49:20.412Z,5.83
2018-06-20T20:51:54.619Z,4.70
2018-06-20T20:54:28.923Z,4.67
2018-06-20T20:57:03.232Z,4.10
2018-06-20T20:59:37.541Z,5.83
2018-06-20T21:02:11.721Z,6.67
2018-06-20T21:04:45.883Z,3.83
2018-06-20T21:07:20.117Z,3.97
2018-06-20T21:09:54.567Z,4.70
2018-06-20T21:12:29.015Z,3.83
2018-06-20T21:15:03.392Z,3.47
2018-06-20T21:17:38.506Z,3.33
2018-06-20T21:20:12.821Z,4.03
2018-06-20T21:22:47.013Z,6.60
2018-06-20T21:25:21.375Z,4.10
2018-06-20T21:27:55.679Z,4.07
2018-06-20T21:30:30.042Z,4.53
2018-06-20T21:33:04.290Z,3.93
2018-06-20T21:35:38.643Z,4.97
2018-06-20T21:38:12.851Z,3.30
2018-06-20T21:40:47.022Z,4.97
2018-06-20T21:43:21.302Z,6.53
2018-06-20T21:45:55.563Z,3.73
2018-06-20T21:48:29.859Z,4.37
2018-06-20T21:51:04.099Z,4.07
2018-06-20T21:53:38.446Z,5.40
2018-06-20T21:56:12.774Z,4.07
2018-06-20T21:58:47.199Z,4.77
2018-06-20T22:01:21.436Z,4.23
2018-06-20T22:03:55.821Z,4.97
2018-06-20T22:06:29.975Z,4.10
2018-06-20T22:09:06.324Z,4.23
2018-06-20T22:11:40.636Z,6.13
2018-06-20T22:14:15.012Z,4.20
2018-06-20T22:16:49.387Z,7.87
2018-06-20T22:19:23.793Z,5.87
2018-06-20T22:21:58.016Z,5.93
2018-06-20T22:24:32.331Z,4.03
2018-06-20T22:27:06.607Z,6.97
2018-06-20T22:29:41.003Z,5.57
2018-06-20T22:32:15.381Z,6.73
2018-06-20T22:34:49.659Z,5.03
2018-06-20T22:37:23.790Z,5.87
2018-06-20T22:39:58.215Z,5.13
2018-06-20T22:42:32.706Z,4.00
2018-06-20T22:45:06.933Z,4.57
2018-06-20T22:47:41.234Z,6.00
2018-06-20T22:50:15.506Z,6.13
2018-06-20T22:52:49.837Z,4.37
2018-06-20T22:55:24.138Z,6.83
2018-06-20T22:57:58.542Z,4.53
2018-06-20T23:00:32.736Z,5.17
2018-06-20T23:03:07.203Z,4.50
2018-06-20T23:05:41.556Z,4.53
2018-06-20T23:08:15.712Z,4.60
2018-06-20T23:10:50.115Z,5.63
2018-06-20T23:13:24.438Z,7.87
2018-06-20T23:15:59.055Z,5.53
2018-06-20T23:18:33.274Z,9.63
2018-06-20T23:21:07.643Z,6.80
2018-06-20T23:23:41.975Z,5.07
2018-06-20T23:26:16.315Z,6.90
2018-06-20T23:28:50.549Z,12.23
2018-06-20T23:31:25.064Z,10.17
2018-06-20T23:33:59.251Z,6.13
2018-06-20T23:36:33.607Z,7.63
2018-06-20T23:39:09.099Z,6.70
2018-06-20T23:41:43.543Z,6.00
2018-06-20T23:44:17.742Z,6.77
2018-06-20T23:46:52.080Z,8.27
2018-06-20T23:49:26.495Z,9.87
2018-06-20T23:52:01.050Z,9.47
2018-06-20T23:54:35.211Z,10.30
2018-06-20T23:57:09.432Z,10.67
2018-06-20T23:59:43.711Z,9.40
